Netcong, NJ (07857)

8:53 PM EDT on July 04, 2015 (GMT -0400)
KNJNETCO2 | | Change Station
CLOSE
Current Station
Personal Weather Station
Location: Netcong, NJ
Elevation: 919 ft
Nearby Weather Stations

Elev 919 ft 40.90 °N, 74.70 °W | Updated 2 seconds ago

Overcast
Overcast
68.1 °F
Feels Like 68.1 °F
N
0.0
Wind Variable Wind from West
Gusts 1.1 mph

Today
High -- | Low -- °F
--% Chance of Precip.
Yesterday
High -- | Low -- °F
Precip. -- in
5:32 AM 8:33 PM
Waning Gibbous, 89% visible
Pressure 29.98 in
Visibility 15.0 miles
Clouds Few 3000 ft
Overcast 5000 ft
Dew Point 59 °F
Humidity 72%
Rainfall 0.10 in
Snow Depth Not available.
UV 0 out of 12
Pollen .60 out of 12
Air Quality Not available.
Flu Activity Not available.
METAR KMMU 042345Z 00000KT 15SM FEW030 OVC050 23/15 A2998

More Conditions Fewer Conditions

Pressure 29.98 in
Visibility 15.0 miles
Clouds Few 3000 ft
Overcast 5000 ft
Dew Point 59 °F
Humidity 72%
Rainfall 0.10 in
Snow Depth Not available.
UV 0 out of 12
Pollen .60 out of 12
Air Quality Not available.
Flu Activity Not available.
METAR KMMU 042345Z 00000KT 15SM FEW030 OVC050 23/15 A2998

More Conditions Fewer Conditions

10-Day Weather Forecast

×

Almanac

Astronomy

Jul. 04, 2015 Rise Set
Actual Time
Civil Twilight
Nautical Twilight
Astronomical Twilight
Moon
Length of Visible Light
Length of Day
Tomorrow will be .
, % of the Moon is Illuminated

Today's Extremes

State Highs State Lows

Community

WunderPhotos

Upload Photos

1,835,125 photos uploaded!

WunderBlogs® & News

Nearby

Air Quality

  Air Quality AQ Index Pollutant
Not available.

Snow Depth

Station Depth Elevation

Earthquake Activity

City Distance Mag. Time & Date
Minimum magnitude displayed is 2.5.

Coastal Water Temperatures

Place Temperature

Stations

Nearby Weather Stations

Station Location Temp. Windchill Dew Point Humidity Wind Precip. Elev Updated Type